sensor_id;sensor_type;location;lat;lon;timestamp;noise_LAeq;noise_LA_min;noise_LA_max;noise_LA01;noise_LA95
60116;Laerm;62818;49.394;8.686;2024-02-15T00:01:39;65.83;38.05;84.26;;
60116;Laerm;62818;49.394;8.686;2024-02-15T00:06:40;53.19;40.53;67.38;;
60116;Laerm;62818;49.394;8.686;2024-02-15T00:11:40;63.56;39.23;83.99;;
60116;Laerm;62818;49.394;8.686;2024-02-15T00:16:40;48.54;39.70;63.24;;
60116;Laerm;62818;49.394;8.686;2024-02-15T00:21:43;63.60;39.58;83.64;;
60116;Laerm;62818;49.394;8.686;2024-02-15T00:26:44;63.68;38.67;84.02;;
60116;Laerm;62818;49.394;8.686;2024-02-15T00:31:44;48.90;40.03;64.90;;
60116;Laerm;62818;49.394;8.686;2024-02-15T00:36:45;62.98;40.33;83.62;;
60116;Laerm;62818;49.394;8.686;2024-02-15T00:41:45;50.73;39.34;73.03;;
60116;Laerm;62818;49.394;8.686;2024-02-15T00:46:46;63.16;39.46;83.86;;
60116;Laerm;62818;49.394;8.686;2024-02-15T00:51:48;63.28;39.21;83.86;;
60116;Laerm;62818;49.394;8.686;2024-02-15T00:56:48;50.97;38.95;65.15;;
60116;Laerm;62818;49.394;8.686;2024-02-15T01:01:49;63.19;39.70;83.87;;
60116;Laerm;62818;49.394;8.686;2024-02-15T01:06:49;54.35;40.03;82.58;;
60116;Laerm;62818;49.394;8.686;2024-02-15T01:11:50;63.68;39.21;83.59;;
60116;Laerm;62818;49.394;8.686;2024-02-15T01:16:50;44.66;37.88;60.85;;
60116;Laerm;62818;49.394;8.686;2024-02-15T01:21:51;65.09;39.92;83.98;;
60116;Laerm;62818;49.394;8.686;2024-02-15T01:26:52;53.41;39.46;71.24;;
60116;Laerm;62818;49.394;8.686;2024-02-15T01:31:53;65.47;39.08;84.00;;
60116;Laerm;62818;49.394;8.686;2024-02-15T01:36:54;51.54;39.92;67.39;;
60116;Laerm;62818;49.394;8.686;2024-02-15T01:41:54;63.04;38.95;83.60;;
60116;Laerm;62818;49.394;8.686;2024-02-15T01:46:57;63.75;39.46;83.76;;
60116;Laerm;62818;49.394;8.686;2024-02-15T01:52:01;64.14;39.58;83.93;;
60116;Laerm;62818;49.394;8.686;2024-02-15T01:57:03;67.69;39.08;83.68;;
60116;Laerm;62818;49.394;8.686;2024-02-15T02:02:08;64.53;40.53;83.58;;
60116;Laerm;62818;49.394;8.686;2024-02-15T02:07:11;63.92;40.33;83.81;;
60116;Laerm;62818;49.394;8.686;2024-02-15T02:12:12;43.83;40.23;52.59;;
60116;Laerm;62818;49.394;8.686;2024-02-15T02:17:16;63.24;39.34;83.94;;
60116;Laerm;62818;49.394;8.686;2024-02-15T02:22:19;62.34;39.08;83.75;;
60116;Laerm;62818;49.394;8.686;2024-02-15T02:27:21;62.73;38.81;83.90;;
60116;Laerm;62818;49.394;8.686;2024-02-15T02:32:21;63.68;38.37;83.82;;
60116;Laerm;62818;49.394;8.686;2024-02-15T02:37:22;46.47;39.46;62.57;;
60116;Laerm;62818;49.394;8.686;2024-02-15T02:42:22;62.74;40.23;83.73;;
60116;Laerm;62818;49.394;8.686;2024-02-15T02:47:23;47.45;38.67;66.13;;
60116;Laerm;62818;49.394;8.686;2024-02-15T02:52:23;63.14;39.92;84.07;;
60116;Laerm;62818;49.394;8.686;2024-02-15T02:57:24;49.26;39.58;64.26;;
60116;Laerm;62818;49.394;8.686;2024-02-15T03:02:24;65.86;40.23;84.30;;
60116;Laerm;62818;49.394;8.686;2024-02-15T03:07:24;49.37;40.03;65.50;;
60116;Laerm;62818;49.394;8.686;2024-02-15T03:12:26;62.67;40.23;83.99;;
60116;Laerm;62818;49.394;8.686;2024-02-15T03:17:26;46.80;41.61;62.43;;
60116;Laerm;62818;49.394;8.686;2024-02-15T03:22:28;64.58;40.62;83.92;;
60116;Laerm;62818;49.394;8.686;2024-02-15T03:27:32;63.57;41.89;84.25;;
60116;Laerm;62818;49.394;8.686;2024-02-15T03:32:32;63.58;40.33;83.81;;
60116;Laerm;62818;49.394;8.686;2024-02-15T03:37:33;50.16;39.46;65.41;;
60116;Laerm;62818;49.394;8.686;2024-02-15T03:42:37;65.74;40.13;83.93;;
60116;Laerm;62818;49.394;8.686;2024-02-15T03:47:37;50.54;39.70;66.12;;
60116;Laerm;62818;49.394;8.686;2024-02-15T03:52:38;65.62;40.23;83.83;;
60116;Laerm;62818;49.394;8.686;2024-02-15T03:57:40;63.70;40.79;83.83;;
60116;Laerm;62818;49.394;8.686;2024-02-15T04:02:47;63.67;40.53;83.82;;
60116;Laerm;62818;49.394;8.686;2024-02-15T04:07:50;63.36;40.80;83.79;;
60116;Laerm;62818;49.394;8.686;2024-02-15T04:12:50;54.20;40.80;67.83;;
60116;Laerm;62818;49.394;8.686;2024-02-15T04:17:51;63.56;41.61;83.85;;
60116;Laerm;62818;49.394;8.686;2024-02-15T04:22:56;63.43;42.09;83.74;;
60116;Laerm;62818;49.394;8.686;2024-02-15T04:27:58;63.82;42.59;83.46;;
60116;Laerm;62818;49.394;8.686;2024-02-15T04:33:05;63.78;41.82;83.78;;
60116;Laerm;62818;49.394;8.686;2024-02-15T04:38:08;63.98;42.59;83.71;;
60116;Laerm;62818;49.394;8.686;2024-02-15T04:43:09;57.49;42.29;68.09;;
60116;Laerm;62818;49.394;8.686;2024-02-15T04:48:09;64.75;42.47;83.79;;
60116;Laerm;62818;49.394;8.686;2024-02-15T04:53:11;64.40;42.09;84.14;;
60116;Laerm;62818;49.394;8.686;2024-02-15T04:58:11;58.86;42.16;70.51;;
60116;Laerm;62818;49.394;8.686;2024-02-15T05:03:11;64.91;42.58;84.03;;
60116;Laerm;62818;49.394;8.686;2024-02-15T05:08:12;59.50;43.34;73.47;;
60116;Laerm;62818;49.394;8.686;2024-02-15T05:13:14;63.83;42.71;83.84;;
60116;Laerm;62818;49.394;8.686;2024-02-15T05:18:16;64.45;42.93;83.77;;
60116;Laerm;62818;49.394;8.686;2024-02-15T05:23:17;58.07;43.33;68.91;;
60116;Laerm;62818;49.394;8.686;2024-02-15T05:28:18;65.52;43.63;84.36;;
60116;Laerm;62818;49.394;8.686;2024-02-15T05:33:19;59.15;43.37;68.94;;
60116;Laerm;62818;49.394;8.686;2024-02-15T05:38:19;64.98;43.94;83.91;;
60116;Laerm;62818;49.394;8.686;2024-02-15T05:43:19;60.39;43.86;72.18;;
60116;Laerm;62818;49.394;8.686;2024-02-15T05:48:20;65.32;43.29;84.21;;
60116;Laerm;62818;49.394;8.686;2024-02-15T05:53:21;65.06;43.63;83.97;;
60116;Laerm;62818;49.394;8.686;2024-02-15T05:58:22;59.94;43.72;73.86;;
60116;Laerm;62818;49.394;8.686;2024-02-15T06:03:22;65.29;45.30;84.33;;
60116;Laerm;62818;49.394;8.686;2024-02-15T06:08:27;65.35;46.20;84.14;;
60116;Laerm;62818;49.394;8.686;2024-02-15T06:13:30;65.42;45.45;83.71;;
60116;Laerm;62818;49.394;8.686;2024-02-15T06:18:31;65.76;45.20;83.89;;
60116;Laerm;62818;49.394;8.686;2024-02-15T06:23:36;66.82;45.51;84.41;;
60116;Laerm;62818;49.394;8.686;2024-02-15T06:28:37;65.63;46.50;84.03;;
60116;Laerm;62818;49.394;8.686;2024-02-15T06:33:56;65.02;44.27;84.09;;
60116;Laerm;62818;49.394;8.686;2024-02-15T06:39:15;65.70;48.87;84.23;;
60116;Laerm;62818;49.394;8.686;2024-02-15T06:44:34;65.67;49.08;84.01;;
60116;Laerm;62818;49.394;8.686;2024-02-15T06:49:36;65.34;47.44;83.93;;
60116;Laerm;62818;49.394;8.686;2024-02-15T06:54:40;65.70;49.50;83.42;;
60116;Laerm;62818;49.394;8.686;2024-02-15T06:59:41;65.01;47.32;83.47;;
60116;Laerm;62818;49.394;8.686;2024-02-15T07:04:44;64.72;47.06;83.16;;
60116;Laerm;62818;49.394;8.686;2024-02-15T07:09:50;64.24;48.55;83.01;;
60116;Laerm;62818;49.394;8.686;2024-02-15T07:14:51;65.00;48.39;83.14;;
60116;Laerm;62818;49.394;8.686;2024-02-15T07:19:54;61.82;48.03;70.28;;
60116;Laerm;62818;49.394;8.686;2024-02-15T07:24:55;65.35;48.02;83.39;;
60116;Laerm;62818;49.394;8.686;2024-02-15T07:29:56;60.43;47.84;68.49;;
60116;Laerm;62818;49.394;8.686;2024-02-15T07:34:59;64.66;47.74;82.80;;
60116;Laerm;62818;49.394;8.686;2024-02-15T07:40:00;60.11;48.07;77.75;;
60116;Laerm;62818;49.394;8.686;2024-02-15T07:45:01;64.21;48.85;82.28;;
60116;Laerm;62818;49.394;8.686;2024-02-15T07:50:01;63.96;46.45;82.36;;
60116;Laerm;62818;49.394;8.686;2024-02-15T07:55:03;62.41;44.54;81.93;;
60116;Laerm;62818;49.394;8.686;2024-02-15T08:00:09;62.59;48.88;81.26;;
60116;Laerm;62818;49.394;8.686;2024-02-15T08:05:12;62.62;45.36;81.56;;
60116;Laerm;62818;49.394;8.686;2024-02-15T08:10:14;61.52;44.65;80.86;;
60116;Laerm;62818;49.394;8.686;2024-02-15T08:15:15;57.75;44.35;67.33;;
60116;Laerm;62818;49.394;8.686;2024-02-15T08:20:16;62.13;45.14;81.15;;
60116;Laerm;62818;49.394;8.686;2024-02-15T08:25:21;61.38;43.99;80.85;;
60116;Laerm;62818;49.394;8.686;2024-02-15T08:30:22;58.32;46.59;68.79;;
60116;Laerm;62818;49.394;8.686;2024-02-15T08:35:22;61.05;45.33;80.04;;
60116;Laerm;62818;49.394;8.686;2024-02-15T08:40:23;59.41;44.35;78.55;;
60116;Laerm;62818;49.394;8.686;2024-02-15T08:45:25;56.61;46.18;69.22;;
60116;Laerm;62818;49.394;8.686;2024-02-15T08:50:26;58.66;49.75;76.53;;
60116;Laerm;62818;49.394;8.686;2024-02-15T08:55:27;57.65;41.89;74.80;;
60116;Laerm;62818;49.394;8.686;2024-02-15T09:00:28;57.46;5.00;68.71;;
60116;Laerm;62818;49.394;8.686;2024-02-15T09:05:29;58.92;5.00;71.57;;
60116;Laerm;62818;49.394;8.686;2024-02-15T09:10:30;61.90;5.00;96.82;;
60116;Laerm;62818;49.394;8.686;2024-02-15T09:15:31;58.39;5.00;96.82;;
60116;Laerm;62818;49.394;8.686;2024-02-15T09:20:31;80.80;5.00;97.54;;
60116;Laerm;62818;49.394;8.686;2024-02-15T09:25:33;83.10;5.00;97.14;;
60116;Laerm;62818;49.394;8.686;2024-02-15T09:30:34;5.00;5.00;5.00;;
60116;Laerm;62818;49.394;8.686;2024-02-15T09:35:35;62.09;5.00;96.47;;
60116;Laerm;62818;49.394;8.686;2024-02-15T09:40:36;62.01;49.21;67.10;;
60116;Laerm;62818;49.394;8.686;2024-02-15T09:45:36;60.78;5.00;96.82;;
60116;Laerm;62818;49.394;8.686;2024-02-15T09:50:39;62.47;5.00;96.82;;
60116;Laerm;62818;49.394;8.686;2024-02-15T09:55:43;64.19;5.00;96.82;;
60116;Laerm;62818;49.394;8.686;2024-02-15T10:00:43;58.25;5.00;96.82;;
60116;Laerm;62818;49.394;8.686;2024-02-15T10:05:48;81.45;5.00;98.10;;
60116;Laerm;62818;49.394;8.686;2024-02-15T10:11:08;83.12;5.00;106.66;;
60116;Laerm;62818;49.394;8.686;2024-02-15T10:16:19;62.25;5.00;96.82;;
60116;Laerm;62818;49.394;8.686;2024-02-15T10:21:25;5.00;5.00;5.00;;
60116;Laerm;62818;49.394;8.686;2024-02-15T10:26:26;60.20;5.00;96.40;;
60116;Laerm;62818;49.394;8.686;2024-02-15T10:31:29;58.88;5.00;66.54;;
60116;Laerm;62818;49.394;8.686;2024-02-15T10:36:30;58.74;5.00;66.92;;
60116;Laerm;62818;49.394;8.686;2024-02-15T10:41:37;74.10;5.00;97.47;;
60116;Laerm;62818;49.394;8.686;2024-02-15T10:46:40;77.32;5.00;97.67;;
60116;Laerm;62818;49.394;8.686;2024-02-15T10:51:44;63.29;5.00;96.82;;
60116;Laerm;62818;49.394;8.686;2024-02-15T10:56:52;74.66;5.00;97.67;;
60116;Laerm;62818;49.394;8.686;2024-02-15T11:01:59;82.39;5.00;98.30;;
60116;Laerm;62818;49.394;8.686;2024-02-15T11:07:01;5.00;5.00;5.00;;
60116;Laerm;62818;49.394;8.686;2024-02-15T11:12:06;69.73;5.00;96.82;;
60116;Laerm;62818;49.394;8.686;2024-02-15T11:17:06;59.21;5.00;96.47;;
60116;Laerm;62818;49.394;8.686;2024-02-15T11:22:15;74.19;5.00;97.99;;
60116;Laerm;62818;49.394;8.686;2024-02-15T11:27:30;5.00;5.00;5.00;;
60116;Laerm;62818;49.394;8.686;2024-02-15T11:38:47;84.38;5.00;109.65;;
60116;Laerm;62818;49.394;8.686;2024-02-15T11:43:52;74.73;5.00;97.87;;
60116;Laerm;62818;49.394;8.686;2024-02-15T11:48:57;78.85;5.00;112.13;;
60116;Laerm;62818;49.394;8.686;2024-02-15T11:54:10;59.00;5.00;92.94;;
60116;Laerm;62818;49.394;8.686;2024-02-15T11:59:14;68.19;5.00;96.82;;
60116;Laerm;62818;49.394;8.686;2024-02-15T12:04:31;62.26;34.69;68.22;;
60116;Laerm;62818;49.394;8.686;2024-02-15T12:09:58;60.76;5.00;68.15;;
60116;Laerm;62818;49.394;8.686;2024-02-15T12:15:17;64.41;5.00;96.82;;
60116;Laerm;62818;49.394;8.686;2024-02-15T12:20:36;53.41;5.00;65.69;;
60116;Laerm;62818;49.394;8.686;2024-02-15T12:25:37;54.25;5.00;67.52;;
60116;Laerm;62818;49.394;8.686;2024-02-15T12:30:39;53.79;5.00;65.19;;
60116;Laerm;62818;49.394;8.686;2024-02-15T12:35:40;54.74;5.00;65.25;;
60116;Laerm;62818;49.394;8.686;2024-02-15T12:40:42;54.97;5.00;65.87;;
60116;Laerm;62818;49.394;8.686;2024-02-15T12:45:44;54.86;5.00;66.65;;
60116;Laerm;62818;49.394;8.686;2024-02-15T12:50:45;55.22;5.00;66.88;;
60116;Laerm;62818;49.394;8.686;2024-02-15T12:55:53;55.47;5.00;66.05;;
60116;Laerm;62818;49.394;8.686;2024-02-15T13:00:57;57.03;5.00;65.75;;
60116;Laerm;62818;49.394;8.686;2024-02-15T13:05:58;57.12;5.00;64.57;;
60116;Laerm;62818;49.394;8.686;2024-02-15T13:10:59;57.07;5.00;77.59;;
60116;Laerm;62818;49.394;8.686;2024-02-15T13:15:59;56.94;36.56;72.52;;
60116;Laerm;62818;49.394;8.686;2024-02-15T13:21:01;60.37;51.24;76.72;;
60116;Laerm;62818;49.394;8.686;2024-02-15T13:26:01;55.71;49.69;64.06;;
60116;Laerm;62818;49.394;8.686;2024-02-15T13:31:04;55.46;48.23;62.83;;
60116;Laerm;62818;49.394;8.686;2024-02-15T13:36:05;55.09;48.07;62.84;;
60116;Laerm;62818;49.394;8.686;2024-02-15T13:41:07;55.25;48.80;64.62;;
60116;Laerm;62818;49.394;8.686;2024-02-15T13:46:08;55.98;48.55;66.88;;
60116;Laerm;62818;49.394;8.686;2024-02-15T13:51:09;54.94;47.04;64.03;;
60116;Laerm;62818;49.394;8.686;2024-02-15T13:56:09;56.21;48.12;69.81;;
60116;Laerm;62818;49.394;8.686;2024-02-15T14:01:10;55.70;49.81;67.50;;
60116;Laerm;62818;49.394;8.686;2024-02-15T14:06:14;55.60;50.01;68.44;;
60116;Laerm;62818;49.394;8.686;2024-02-15T14:11:17;55.55;51.09;61.19;;
60116;Laerm;62818;49.394;8.686;2024-02-15T14:16:17;55.21;50.79;63.00;;
60116;Laerm;62818;49.394;8.686;2024-02-15T14:21:18;55.50;49.62;67.16;;
60116;Laerm;62818;49.394;8.686;2024-02-15T14:26:19;55.31;48.13;64.49;;
60116;Laerm;62818;49.394;8.686;2024-02-15T14:31:22;54.83;48.96;64.46;;
60116;Laerm;62818;49.394;8.686;2024-02-15T14:36:41;57.52;48.34;77.49;;
60116;Laerm;62818;49.394;8.686;2024-02-15T14:41:43;55.08;45.45;62.19;;
60116;Laerm;62818;49.394;8.686;2024-02-15T14:46:43;54.83;44.03;63.20;;
60116;Laerm;62818;49.394;8.686;2024-02-15T14:51:44;56.39;43.24;65.17;;
60116;Laerm;62818;49.394;8.686;2024-02-15T14:56:45;55.79;42.82;64.92;;
60116;Laerm;62818;49.394;8.686;2024-02-15T15:01:45;56.72;42.19;67.81;;
60116;Laerm;62818;49.394;8.686;2024-02-15T15:06:46;56.13;42.53;62.97;;
60116;Laerm;62818;49.394;8.686;2024-02-15T15:12:05;55.51;43.81;71.73;;
60116;Laerm;62818;49.394;8.686;2024-02-15T15:17:24;55.75;50.80;67.06;;
60116;Laerm;62818;49.394;8.686;2024-02-15T15:22:27;55.00;47.86;64.06;;
60116;Laerm;62818;49.394;8.686;2024-02-15T15:27:28;56.54;46.93;67.31;;
60116;Laerm;62818;49.394;8.686;2024-02-15T15:32:28;57.41;44.03;66.83;;
60116;Laerm;62818;49.394;8.686;2024-02-15T15:37:30;58.15;43.63;69.75;;
60116;Laerm;62818;49.394;8.686;2024-02-15T15:42:31;59.20;43.49;73.26;;
60116;Laerm;62818;49.394;8.686;2024-02-15T15:47:32;57.99;42.93;73.86;;
60116;Laerm;62818;49.394;8.686;2024-02-15T15:52:33;58.96;43.72;69.50;;
60116;Laerm;62818;49.394;8.686;2024-02-15T15:57:34;59.02;42.93;68.12;;
60116;Laerm;62818;49.394;8.686;2024-02-15T16:02:34;60.55;43.49;84.02;;
60116;Laerm;62818;49.394;8.686;2024-02-15T16:07:36;59.70;43.49;68.06;;
60116;Laerm;62818;49.394;8.686;2024-02-15T16:12:41;60.24;43.86;68.56;;
60116;Laerm;62818;49.394;8.686;2024-02-15T16:17:45;59.49;44.15;70.00;;
60116;Laerm;62818;49.394;8.686;2024-02-15T16:22:45;60.78;44.73;71.03;;
60116;Laerm;62818;49.394;8.686;2024-02-15T16:27:46;61.15;44.51;78.23;;
60116;Laerm;62818;49.394;8.686;2024-02-15T16:32:51;60.41;45.14;69.08;;
60116;Laerm;62818;49.394;8.686;2024-02-15T16:37:51;61.06;45.80;71.95;;
60116;Laerm;62818;49.394;8.686;2024-02-15T16:42:53;60.72;44.90;68.66;;
60116;Laerm;62818;49.394;8.686;2024-02-15T16:47:54;60.29;44.90;69.26;;
60116;Laerm;62818;49.394;8.686;2024-02-15T16:53:00;60.84;43.94;69.37;;
60116;Laerm;62818;49.394;8.686;2024-02-15T16:58:01;60.13;45.23;67.51;;
60116;Laerm;62818;49.394;8.686;2024-02-15T17:03:08;60.50;45.20;76.94;;
60116;Laerm;62818;49.394;8.686;2024-02-15T17:08:09;68.55;45.42;86.13;;
60116;Laerm;62818;49.394;8.686;2024-02-15T17:13:10;60.31;43.04;70.08;;
60116;Laerm;62818;49.394;8.686;2024-02-15T17:18:10;60.82;44.87;74.72;;
60116;Laerm;62818;49.394;8.686;2024-02-15T17:23:11;60.94;45.66;70.84;;
60116;Laerm;62818;49.394;8.686;2024-02-15T17:28:11;59.74;43.81;69.09;;
60116;Laerm;62818;49.394;8.686;2024-02-15T17:33:12;60.36;43.90;70.00;;
60116;Laerm;62818;49.394;8.686;2024-02-15T17:38:14;60.17;43.00;70.07;;
60116;Laerm;62818;49.394;8.686;2024-02-15T17:43:14;60.23;43.09;74.28;;
60116;Laerm;62818;49.394;8.686;2024-02-15T17:48:15;60.36;43.81;68.74;;
60116;Laerm;62818;49.394;8.686;2024-02-15T17:53:20;60.76;44.56;69.06;;
60116;Laerm;62818;49.394;8.686;2024-02-15T17:58:24;61.45;44.73;76.95;;
60116;Laerm;62818;49.394;8.686;2024-02-15T18:03:25;60.37;44.31;71.93;;
60116;Laerm;62818;49.394;8.686;2024-02-15T18:08:26;60.86;43.04;79.09;;
60116;Laerm;62818;49.394;8.686;2024-02-15T18:13:28;59.41;45.07;69.46;;
60116;Laerm;62818;49.394;8.686;2024-02-15T18:18:29;59.79;43.63;79.52;;
60116;Laerm;62818;49.394;8.686;2024-02-15T18:23:29;59.69;44.07;77.25;;
60116;Laerm;62818;49.394;8.686;2024-02-15T18:28:30;59.20;43.72;70.63;;
60116;Laerm;62818;49.394;8.686;2024-02-15T18:33:30;60.10;42.93;76.91;;
60116;Laerm;62818;49.394;8.686;2024-02-15T18:38:32;59.24;42.98;70.83;;
60116;Laerm;62818;49.394;8.686;2024-02-15T18:43:33;59.18;43.14;69.32;;
60116;Laerm;62818;49.394;8.686;2024-02-15T18:48:34;60.04;42.35;79.51;;
60116;Laerm;62818;49.394;8.686;2024-02-15T18:53:37;59.33;43.81;72.12;;
60116;Laerm;62818;49.394;8.686;2024-02-15T18:58:37;59.85;44.39;70.71;;
60116;Laerm;62818;49.394;8.686;2024-02-15T19:03:38;59.33;43.72;80.15;;
60116;Laerm;62818;49.394;8.686;2024-02-15T19:08:40;61.28;42.47;89.52;;
60116;Laerm;62818;49.394;8.686;2024-02-15T19:13:42;59.07;41.89;72.60;;
60116;Laerm;62818;49.394;8.686;2024-02-15T19:18:43;59.64;42.76;77.56;;
60116;Laerm;62818;49.394;8.686;2024-02-15T19:23:43;59.64;43.63;73.25;;
60116;Laerm;62818;49.394;8.686;2024-02-15T19:28:45;58.05;42.98;68.97;;
60116;Laerm;62818;49.394;8.686;2024-02-15T19:33:47;59.35;43.90;79.80;;
60116;Laerm;62818;49.394;8.686;2024-02-15T19:38:48;58.87;41.30;73.43;;
60116;Laerm;62818;49.394;8.686;2024-02-15T19:43:49;58.10;42.93;76.77;;
60116;Laerm;62818;49.394;8.686;2024-02-15T19:48:52;59.85;43.24;75.79;;
60116;Laerm;62818;49.394;8.686;2024-02-15T19:53:52;60.12;43.93;78.05;;
60116;Laerm;62818;49.394;8.686;2024-02-15T19:58:53;60.02;43.72;74.48;;
60116;Laerm;62818;49.394;8.686;2024-02-15T20:03:55;59.69;43.29;77.36;;
60116;Laerm;62818;49.394;8.686;2024-02-15T20:08:56;59.66;43.24;76.29;;
60116;Laerm;62818;49.394;8.686;2024-02-15T20:13:58;59.35;44.62;75.80;;
60116;Laerm;62818;49.394;8.686;2024-02-15T20:19:02;60.76;44.31;81.44;;
60116;Laerm;62818;49.394;8.686;2024-02-15T20:24:03;61.14;43.86;85.86;;
60116;Laerm;62818;49.394;8.686;2024-02-15T20:29:05;60.69;43.44;78.71;;
60116;Laerm;62818;49.394;8.686;2024-02-15T20:34:05;58.13;42.98;74.97;;
60116;Laerm;62818;49.394;8.686;2024-02-15T20:39:06;59.75;42.71;83.98;;
60116;Laerm;62818;49.394;8.686;2024-02-15T20:44:06;58.59;42.59;74.10;;
60116;Laerm;62818;49.394;8.686;2024-02-15T20:49:09;58.59;43.04;69.17;;
60116;Laerm;62818;49.394;8.686;2024-02-15T20:54:09;57.82;42.82;68.80;;
60116;Laerm;62818;49.394;8.686;2024-02-15T20:59:10;59.60;42.59;68.36;;
60116;Laerm;62818;49.394;8.686;2024-02-15T21:04:13;59.25;42.98;67.42;;
60116;Laerm;62818;49.394;8.686;2024-02-15T21:09:14;59.68;42.47;69.09;;
60116;Laerm;62818;49.394;8.686;2024-02-15T21:14:16;58.42;41.96;67.33;;
60116;Laerm;62818;49.394;8.686;2024-02-15T21:19:16;58.11;43.04;69.67;;
60116;Laerm;62818;49.394;8.686;2024-02-15T21:24:17;58.02;41.75;69.76;;
60116;Laerm;62818;49.394;8.686;2024-02-15T21:29:17;58.11;40.71;67.67;;
60116;Laerm;62818;49.394;8.686;2024-02-15T21:34:18;57.20;40.53;68.99;;
60116;Laerm;62818;49.394;8.686;2024-02-15T21:39:18;58.23;42.59;67.38;;
60116;Laerm;62818;49.394;8.686;2024-02-15T21:44:25;57.47;40.43;67.63;;
60116;Laerm;62818;49.394;8.686;2024-02-15T21:49:25;57.82;40.89;67.85;;
60116;Laerm;62818;49.394;8.686;2024-02-15T21:54:25;58.10;41.68;70.39;;
60116;Laerm;62818;49.394;8.686;2024-02-15T21:59:26;57.47;42.35;68.59;;
60116;Laerm;62818;49.394;8.686;2024-02-15T22:04:27;57.44;40.13;69.29;;
60116;Laerm;62818;49.394;8.686;2024-02-15T22:09:27;57.00;39.46;68.67;;
60116;Laerm;62818;49.394;8.686;2024-02-15T22:14:28;57.09;40.89;68.45;;
60116;Laerm;62818;49.394;8.686;2024-02-15T22:19:28;56.39;40.98;69.58;;
60116;Laerm;62818;49.394;8.686;2024-02-15T22:24:28;56.44;40.71;67.31;;
60116;Laerm;62818;49.394;8.686;2024-02-15T22:29:29;56.13;39.58;71.79;;
60116;Laerm;62818;49.394;8.686;2024-02-15T22:34:33;56.19;39.58;72.66;;
60116;Laerm;62818;49.394;8.686;2024-02-15T22:39:33;55.91;41.14;68.20;;
60116;Laerm;62818;49.394;8.686;2024-02-15T22:44:34;55.17;39.81;68.99;;
60116;Laerm;62818;49.394;8.686;2024-02-15T22:49:34;54.72;38.37;74.29;;
60116;Laerm;62818;49.394;8.686;2024-02-15T22:54:35;55.41;41.68;67.45;;
60116;Laerm;62818;49.394;8.686;2024-02-15T22:59:39;56.38;39.21;70.76;;
60116;Laerm;62818;49.394;8.686;2024-02-15T23:04:39;54.47;37.52;67.12;;
60116;Laerm;62818;49.394;8.686;2024-02-15T23:09:40;55.71;39.34;67.75;;
60116;Laerm;62818;49.394;8.686;2024-02-15T23:14:40;54.99;37.12;68.04;;
60116;Laerm;62818;49.394;8.686;2024-02-15T23:19:41;55.65;39.21;68.72;;
60116;Laerm;62818;49.394;8.686;2024-02-15T23:24:41;54.66;38.95;68.61;;
60116;Laerm;62818;49.394;8.686;2024-02-15T23:29:41;53.95;37.70;68.64;;
60116;Laerm;62818;49.394;8.686;2024-02-15T23:34:43;53.75;38.37;66.99;;
60116;Laerm;62818;49.394;8.686;2024-02-15T23:39:46;54.37;38.67;67.99;;
60116;Laerm;62818;49.394;8.686;2024-02-15T23:45:06;54.25;37.88;67.33;;
60116;Laerm;62818;49.394;8.686;2024-02-15T23:50:07;54.35;39.21;67.34;;
60116;Laerm;62818;49.394;8.686;2024-02-15T23:55:15;52.92;38.81;67.24;;
